sensor_id;sensor_type;location;lat;lon;timestamp;P1;durP1;ratioP1;P2;durP2;ratioP2
27939;SDS011;15275;51.716;14.324;2022-10-23T00:00:09;3.13;;;2.80;;
27939;SDS011;15275;51.716;14.324;2022-10-23T00:02:35;4.18;;;2.90;;
27939;SDS011;15275;51.716;14.324;2022-10-23T00:05:01;3.63;;;2.78;;
27939;SDS011;15275;51.716;14.324;2022-10-23T00:07:27;4.30;;;3.10;;
27939;SDS011;15275;51.716;14.324;2022-10-23T00:09:53;4.97;;;3.00;;
27939;SDS011;15275;51.716;14.324;2022-10-23T00:12:19;4.50;;;2.83;;
27939;SDS011;15275;51.716;14.324;2022-10-23T00:14:44;5.32;;;3.20;;
27939;SDS011;15275;51.716;14.324;2022-10-23T00:17:10;3.95;;;2.90;;
27939;SDS011;15275;51.716;14.324;2022-10-23T00:19:36;6.10;;;3.22;;
27939;SDS011;15275;51.716;14.324;2022-10-23T00:22:02;4.63;;;3.25;;
27939;SDS011;15275;51.716;14.324;2022-10-23T00:24:28;4.50;;;2.88;;
27939;SDS011;15275;51.716;14.324;2022-10-23T00:26:54;6.05;;;3.67;;
27939;SDS011;15275;51.716;14.324;2022-10-23T00:29:20;4.00;;;2.95;;
27939;SDS011;15275;51.716;14.324;2022-10-23T00:31:45;3.22;;;2.70;;
27939;SDS011;15275;51.716;14.324;2022-10-23T00:34:11;3.33;;;2.60;;
27939;SDS011;15275;51.716;14.324;2022-10-23T00:36:37;4.80;;;3.10;;
27939;SDS011;15275;51.716;14.324;2022-10-23T00:39:03;8.00;;;3.15;;
27939;SDS011;15275;51.716;14.324;2022-10-23T00:41:30;3.42;;;2.90;;
27939;SDS011;15275;51.716;14.324;2022-10-23T00:44:10;5.03;;;2.90;;
27939;SDS011;15275;51.716;14.324;2022-10-23T00:46:54;3.55;;;2.92;;
27939;SDS011;15275;51.716;14.324;2022-10-23T00:49:21;5.10;;;3.22;;
27939;SDS011;15275;51.716;14.324;2022-10-23T00:51:50;8.75;;;3.45;;
27939;SDS011;15275;51.716;14.324;2022-10-23T00:54:33;5.80;;;3.50;;
27939;SDS011;15275;51.716;14.324;2022-10-23T00:57:03;9.57;;;4.38;;
27939;SDS011;15275;51.716;14.324;2022-10-23T00:59:31;6.13;;;4.18;;
27939;SDS011;15275;51.716;14.324;2022-10-23T01:01:58;6.18;;;4.38;;
27939;SDS011;15275;51.716;14.324;2022-10-23T01:04:24;7.07;;;4.00;;
27939;SDS011;15275;51.716;14.324;2022-10-23T01:06:55;4.85;;;3.80;;
27939;SDS011;15275;51.716;14.324;2022-10-23T01:09:35;4.55;;;3.40;;
27939;SDS011;15275;51.716;14.324;2022-10-23T01:20:54;6.22;;;3.20;;
27939;SDS011;15275;51.716;14.324;2022-10-23T01:23:39;4.60;;;2.97;;
27939;SDS011;15275;51.716;14.324;2022-10-23T01:29:45;6.85;;;3.33;;
27939;SDS011;15275;51.716;14.324;2022-10-23T01:32:40;7.10;;;3.13;;
27939;SDS011;15275;51.716;14.324;2022-10-23T01:35:55;7.10;;;3.33;;
27939;SDS011;15275;51.716;14.324;2022-10-23T01:38:33;6.20;;;3.22;;
27939;SDS011;15275;51.716;14.324;2022-10-23T01:41:23;5.15;;;3.17;;
27939;SDS011;15275;51.716;14.324;2022-10-23T01:46:58;5.55;;;3.38;;
27939;SDS011;15275;51.716;14.324;2022-10-23T01:49:28;5.20;;;3.45;;
27939;SDS011;15275;51.716;14.324;2022-10-23T01:51:55;4.35;;;3.10;;
27939;SDS011;15275;51.716;14.324;2022-10-23T01:54:28;7.32;;;3.35;;
27939;SDS011;15275;51.716;14.324;2022-10-23T01:56:58;5.30;;;3.58;;
27939;SDS011;15275;51.716;14.324;2022-10-23T01:59:27;5.65;;;3.38;;
27939;SDS011;15275;51.716;14.324;2022-10-23T02:02:00;5.55;;;3.38;;
27939;SDS011;15275;51.716;14.324;2022-10-23T02:04:30;6.30;;;3.42;;
27939;SDS011;15275;51.716;14.324;2022-10-23T02:07:06;5.82;;;3.90;;
27939;SDS011;15275;51.716;14.324;2022-10-23T02:09:33;5.82;;;3.42;;
27939;SDS011;15275;51.716;14.324;2022-10-23T02:17:14;4.43;;;3.05;;
27939;SDS011;15275;51.716;14.324;2022-10-23T02:20:27;4.32;;;3.35;;
27939;SDS011;15275;51.716;14.324;2022-10-23T02:23:48;5.38;;;4.18;;
27939;SDS011;15275;51.716;14.324;2022-10-23T02:28:39;5.35;;;3.67;;
27939;SDS011;15275;51.716;14.324;2022-10-23T02:31:15;6.10;;;3.80;;
27939;SDS011;15275;51.716;14.324;2022-10-23T02:33:44;4.70;;;3.92;;
27939;SDS011;15275;51.716;14.324;2022-10-23T02:36:11;11.98;;;4.82;;
27939;SDS011;15275;51.716;14.324;2022-10-23T02:38:39;4.60;;;3.60;;
27939;SDS011;15275;51.716;14.324;2022-10-23T02:46:32;9.48;;;3.70;;
27939;SDS011;15275;51.716;14.324;2022-10-23T02:52:26;7.07;;;4.00;;
27939;SDS011;15275;51.716;14.324;2022-10-23T03:00:57;6.13;;;3.97;;
27939;SDS011;15275;51.716;14.324;2022-10-23T03:03:34;6.00;;;4.15;;
27939;SDS011;15275;51.716;14.324;2022-10-23T03:06:05;5.05;;;3.55;;
27939;SDS011;15275;51.716;14.324;2022-10-23T03:08:47;7.50;;;4.45;;
27939;SDS011;15275;51.716;14.324;2022-10-23T03:11:18;5.13;;;3.78;;
27939;SDS011;15275;51.716;14.324;2022-10-23T03:13:44;5.13;;;4.22;;
27939;SDS011;15275;51.716;14.324;2022-10-23T03:16:10;6.07;;;4.00;;
27939;SDS011;15275;51.716;14.324;2022-10-23T03:21:05;6.45;;;3.50;;
27939;SDS011;15275;51.716;14.324;2022-10-23T03:23:31;8.52;;;3.90;;
27939;SDS011;15275;51.716;14.324;2022-10-23T03:25:57;5.10;;;3.58;;
27939;SDS011;15275;51.716;14.324;2022-10-23T03:28:23;4.78;;;3.40;;
27939;SDS011;15275;51.716;14.324;2022-10-23T03:30:49;4.65;;;3.40;;
27939;SDS011;15275;51.716;14.324;2022-10-23T03:33:15;4.80;;;3.15;;
27939;SDS011;15275;51.716;14.324;2022-10-23T03:35:41;5.88;;;3.08;;
27939;SDS011;15275;51.716;14.324;2022-10-23T03:38:06;3.75;;;3.00;;
27939;SDS011;15275;51.716;14.324;2022-10-23T03:40:32;3.70;;;3.10;;
27939;SDS011;15275;51.716;14.324;2022-10-23T03:42:58;4.57;;;2.97;;
27939;SDS011;15275;51.716;14.324;2022-10-23T03:45:24;3.42;;;2.80;;
27939;SDS011;15275;51.716;14.324;2022-10-23T03:47:50;5.35;;;3.90;;
27939;SDS011;15275;51.716;14.324;2022-10-23T03:50:16;4.30;;;2.88;;
27939;SDS011;15275;51.716;14.324;2022-10-23T03:52:43;4.80;;;3.17;;
27939;SDS011;15275;51.716;14.324;2022-10-23T03:55:09;3.33;;;2.80;;
27939;SDS011;15275;51.716;14.324;2022-10-23T03:57:36;4.60;;;3.30;;
27939;SDS011;15275;51.716;14.324;2022-10-23T04:00:02;7.38;;;3.30;;
27939;SDS011;15275;51.716;14.324;2022-10-23T04:02:30;9.15;;;3.20;;
27939;SDS011;15275;51.716;14.324;2022-10-23T04:04:56;6.80;;;2.85;;
27939;SDS011;15275;51.716;14.324;2022-10-23T04:07:22;3.08;;;2.75;;
27939;SDS011;15275;51.716;14.324;2022-10-23T04:09:48;3.55;;;2.83;;
27939;SDS011;15275;51.716;14.324;2022-10-23T04:12:13;6.00;;;3.08;;
27939;SDS011;15275;51.716;14.324;2022-10-23T04:14:39;4.75;;;2.75;;
27939;SDS011;15275;51.716;14.324;2022-10-23T04:17:05;3.95;;;3.03;;
27939;SDS011;15275;51.716;14.324;2022-10-23T04:19:31;4.97;;;2.75;;
27939;SDS011;15275;51.716;14.324;2022-10-23T04:21:57;3.92;;;2.50;;
27939;SDS011;15275;51.716;14.324;2022-10-23T04:24:23;2.92;;;2.55;;
27939;SDS011;15275;51.716;14.324;2022-10-23T04:26:50;3.60;;;2.50;;
27939;SDS011;15275;51.716;14.324;2022-10-23T04:29:16;4.80;;;2.65;;
27939;SDS011;15275;51.716;14.324;2022-10-23T04:31:46;5.68;;;2.50;;
27939;SDS011;15275;51.716;14.324;2022-10-23T04:34:12;2.95;;;2.40;;
27939;SDS011;15275;51.716;14.324;2022-10-23T04:36:38;3.67;;;2.15;;
27939;SDS011;15275;51.716;14.324;2022-10-23T04:39:04;7.00;;;2.60;;
27939;SDS011;15275;51.716;14.324;2022-10-23T04:41:30;5.00;;;2.25;;
27939;SDS011;15275;51.716;14.324;2022-10-23T04:43:56;2.72;;;2.40;;
27939;SDS011;15275;51.716;14.324;2022-10-23T04:46:22;4.32;;;2.85;;
27939;SDS011;15275;51.716;14.324;2022-10-23T04:48:48;7.18;;;2.83;;
27939;SDS011;15275;51.716;14.324;2022-10-23T04:51:14;3.25;;;2.50;;
27939;SDS011;15275;51.716;14.324;2022-10-23T04:53:40;5.47;;;2.53;;
27939;SDS011;15275;51.716;14.324;2022-10-23T04:56:05;4.70;;;2.65;;
27939;SDS011;15275;51.716;14.324;2022-10-23T04:58:31;3.47;;;2.38;;
27939;SDS011;15275;51.716;14.324;2022-10-23T05:00:58;3.75;;;2.38;;
27939;SDS011;15275;51.716;14.324;2022-10-23T05:03:24;2.78;;;2.20;;
27939;SDS011;15275;51.716;14.324;2022-10-23T05:05:51;3.83;;;2.25;;
27939;SDS011;15275;51.716;14.324;2022-10-23T05:08:19;3.38;;;2.60;;
27939;SDS011;15275;51.716;14.324;2022-10-23T05:10:47;2.33;;;2.13;;
27939;SDS011;15275;51.716;14.324;2022-10-23T05:13:14;4.65;;;2.42;;
27939;SDS011;15275;51.716;14.324;2022-10-23T05:15:43;4.40;;;2.47;;
27939;SDS011;15275;51.716;14.324;2022-10-23T05:18:24;4.05;;;2.25;;
27939;SDS011;15275;51.716;14.324;2022-10-23T05:20:56;2.38;;;2.08;;
27939;SDS011;15275;51.716;14.324;2022-10-23T05:23:27;5.55;;;2.55;;
27939;SDS011;15275;51.716;14.324;2022-10-23T05:25:56;2.85;;;2.10;;
27939;SDS011;15275;51.716;14.324;2022-10-23T05:28:22;4.05;;;2.30;;
27939;SDS011;15275;51.716;14.324;2022-10-23T05:30:48;2.72;;;2.40;;
27939;SDS011;15275;51.716;14.324;2022-10-23T05:33:14;2.95;;;2.40;;
27939;SDS011;15275;51.716;14.324;2022-10-23T05:35:40;2.85;;;2.40;;
27939;SDS011;15275;51.716;14.324;2022-10-23T05:38:08;3.90;;;2.90;;
27939;SDS011;15275;51.716;14.324;2022-10-23T05:40:34;4.10;;;2.55;;
27939;SDS011;15275;51.716;14.324;2022-10-23T05:43:00;5.25;;;3.00;;
27939;SDS011;15275;51.716;14.324;2022-10-23T05:45:26;4.97;;;3.03;;
27939;SDS011;15275;51.716;14.324;2022-10-23T05:47:52;3.58;;;2.67;;
27939;SDS011;15275;51.716;14.324;2022-10-23T05:50:18;5.72;;;2.50;;
27939;SDS011;15275;51.716;14.324;2022-10-23T05:52:45;4.95;;;2.97;;
27939;SDS011;15275;51.716;14.324;2022-10-23T05:55:12;4.43;;;2.60;;
27939;SDS011;15275;51.716;14.324;2022-10-23T05:57:39;9.50;;;3.20;;
27939;SDS011;15275;51.716;14.324;2022-10-23T06:00:05;4.78;;;3.20;;
27939;SDS011;15275;51.716;14.324;2022-10-23T06:02:32;4.45;;;3.60;;
27939;SDS011;15275;51.716;14.324;2022-10-23T06:04:58;8.35;;;3.25;;
27939;SDS011;15275;51.716;14.324;2022-10-23T06:07:25;9.45;;;3.53;;
27939;SDS011;15275;51.716;14.324;2022-10-23T06:09:52;7.80;;;3.38;;
27939;SDS011;15275;51.716;14.324;2022-10-23T06:12:22;7.05;;;2.90;;
27939;SDS011;15275;51.716;14.324;2022-10-23T06:14:47;4.22;;;2.75;;
27939;SDS011;15275;51.716;14.324;2022-10-23T06:17:14;5.53;;;2.72;;
27939;SDS011;15275;51.716;14.324;2022-10-23T06:19:40;6.75;;;2.80;;
27939;SDS011;15275;51.716;14.324;2022-10-23T06:22:08;5.65;;;2.60;;
27939;SDS011;15275;51.716;14.324;2022-10-23T06:24:33;5.18;;;2.83;;
27939;SDS011;15275;51.716;14.324;2022-10-23T06:26:59;3.78;;;2.67;;
27939;SDS011;15275;51.716;14.324;2022-10-23T06:29:25;5.32;;;2.75;;
27939;SDS011;15275;51.716;14.324;2022-10-23T06:31:51;3.42;;;2.83;;
27939;SDS011;15275;51.716;14.324;2022-10-23T06:34:17;4.43;;;2.40;;
27939;SDS011;15275;51.716;14.324;2022-10-23T06:36:42;5.40;;;2.80;;
27939;SDS011;15275;51.716;14.324;2022-10-23T06:39:09;3.95;;;2.63;;
27939;SDS011;15275;51.716;14.324;2022-10-23T06:41:34;5.97;;;2.78;;
27939;SDS011;15275;51.716;14.324;2022-10-23T06:44:00;4.55;;;2.50;;
27939;SDS011;15275;51.716;14.324;2022-10-23T06:46:26;4.25;;;2.60;;
27939;SDS011;15275;51.716;14.324;2022-10-23T06:48:54;5.85;;;2.38;;
27939;SDS011;15275;51.716;14.324;2022-10-23T06:51:20;6.32;;;2.47;;
27939;SDS011;15275;51.716;14.324;2022-10-23T06:53:46;3.55;;;2.20;;
27939;SDS011;15275;51.716;14.324;2022-10-23T06:56:12;3.25;;;2.35;;
27939;SDS011;15275;51.716;14.324;2022-10-23T06:58:38;2.88;;;2.30;;
27939;SDS011;15275;51.716;14.324;2022-10-23T07:01:06;3.63;;;2.42;;
27939;SDS011;15275;51.716;14.324;2022-10-23T07:03:35;6.10;;;2.90;;
27939;SDS011;15275;51.716;14.324;2022-10-23T07:06:01;4.13;;;2.45;;
27939;SDS011;15275;51.716;14.324;2022-10-23T07:08:29;3.35;;;2.47;;
27939;SDS011;15275;51.716;14.324;2022-10-23T07:10:55;4.28;;;2.50;;
27939;SDS011;15275;51.716;14.324;2022-10-23T07:13:21;4.78;;;2.47;;
27939;SDS011;15275;51.716;14.324;2022-10-23T07:15:48;3.55;;;2.67;;
27939;SDS011;15275;51.716;14.324;2022-10-23T07:18:15;8.85;;;2.63;;
27939;SDS011;15275;51.716;14.324;2022-10-23T07:20:43;2.97;;;2.17;;
27939;SDS011;15275;51.716;14.324;2022-10-23T07:23:12;4.55;;;2.97;;
27939;SDS011;15275;51.716;14.324;2022-10-23T07:25:39;6.57;;;2.00;;
27939;SDS011;15275;51.716;14.324;2022-10-23T07:28:06;4.45;;;2.20;;
27939;SDS011;15275;51.716;14.324;2022-10-23T07:30:32;3.38;;;1.92;;
27939;SDS011;15275;51.716;14.324;2022-10-23T07:32:58;4.85;;;2.05;;
27939;SDS011;15275;51.716;14.324;2022-10-23T07:35:24;6.60;;;2.88;;
27939;SDS011;15275;51.716;14.324;2022-10-23T07:37:50;5.53;;;2.42;;
27939;SDS011;15275;51.716;14.324;2022-10-23T07:40:15;2.47;;;2.22;;
27939;SDS011;15275;51.716;14.324;2022-10-23T07:42:42;3.38;;;2.22;;
27939;SDS011;15275;51.716;14.324;2022-10-23T07:45:09;7.20;;;2.20;;
27939;SDS011;15275;51.716;14.324;2022-10-23T07:47:36;2.53;;;1.90;;
27939;SDS011;15275;51.716;14.324;2022-10-23T07:50:02;3.58;;;2.53;;
27939;SDS011;15275;51.716;14.324;2022-10-23T07:52:28;3.08;;;2.22;;
27939;SDS011;15275;51.716;14.324;2022-10-23T07:54:54;5.88;;;2.85;;
27939;SDS011;15275;51.716;14.324;2022-10-23T07:57:20;3.97;;;2.05;;
27939;SDS011;15275;51.716;14.324;2022-10-23T07:59:46;4.28;;;2.53;;
27939;SDS011;15275;51.716;14.324;2022-10-23T08:02:12;4.55;;;2.50;;
27939;SDS011;15275;51.716;14.324;2022-10-23T08:04:39;3.72;;;2.47;;
27939;SDS011;15275;51.716;14.324;2022-10-23T08:07:05;4.88;;;2.50;;
27939;SDS011;15275;51.716;14.324;2022-10-23T08:09:31;4.15;;;2.75;;
27939;SDS011;15275;51.716;14.324;2022-10-23T08:11:58;4.00;;;2.70;;
27939;SDS011;15275;51.716;14.324;2022-10-23T08:14:26;3.45;;;2.28;;
27939;SDS011;15275;51.716;14.324;2022-10-23T08:16:52;8.65;;;2.95;;
27939;SDS011;15275;51.716;14.324;2022-10-23T08:19:18;5.72;;;2.30;;
27939;SDS011;15275;51.716;14.324;2022-10-23T08:21:44;5.13;;;2.40;;
27939;SDS011;15275;51.716;14.324;2022-10-23T08:24:10;4.28;;;2.22;;
27939;SDS011;15275;51.716;14.324;2022-10-23T08:26:39;5.85;;;2.63;;
27939;SDS011;15275;51.716;14.324;2022-10-23T08:29:05;6.53;;;2.53;;
27939;SDS011;15275;51.716;14.324;2022-10-23T08:31:31;3.17;;;2.20;;
27939;SDS011;15275;51.716;14.324;2022-10-23T08:33:57;6.00;;;2.45;;
27939;SDS011;15275;51.716;14.324;2022-10-23T08:36:23;6.47;;;2.40;;
27939;SDS011;15275;51.716;14.324;2022-10-23T08:38:53;4.05;;;2.22;;
27939;SDS011;15275;51.716;14.324;2022-10-23T08:41:34;4.32;;;2.55;;
27939;SDS011;15275;51.716;14.324;2022-10-23T08:49:27;5.65;;;2.10;;
27939;SDS011;15275;51.716;14.324;2022-10-23T08:52:01;6.15;;;2.90;;
27939;SDS011;15275;51.716;14.324;2022-10-23T08:54:44;4.60;;;2.08;;
27939;SDS011;15275;51.716;14.324;2022-10-23T08:57:18;4.97;;;2.17;;
27939;SDS011;15275;51.716;14.324;2022-10-23T08:59:53;3.30;;;2.20;;
27939;SDS011;15275;51.716;14.324;2022-10-23T09:04:59;4.35;;;2.53;;
27939;SDS011;15275;51.716;14.324;2022-10-23T09:13:29;15.73;;;4.03;;
27939;SDS011;15275;51.716;14.324;2022-10-23T09:19:26;6.35;;;2.72;;
27939;SDS011;15275;51.716;14.324;2022-10-23T09:21:53;6.70;;;3.25;;
27939;SDS011;15275;51.716;14.324;2022-10-23T09:24:21;3.55;;;2.55;;
27939;SDS011;15275;51.716;14.324;2022-10-23T09:26:50;6.75;;;3.00;;
27939;SDS011;15275;51.716;14.324;2022-10-23T09:29:20;7.90;;;2.72;;
27939;SDS011;15275;51.716;14.324;2022-10-23T09:31:54;5.72;;;2.65;;
27939;SDS011;15275;51.716;14.324;2022-10-23T09:34:26;4.25;;;3.08;;
27939;SDS011;15275;51.716;14.324;2022-10-23T09:36:56;4.60;;;2.38;;
27939;SDS011;15275;51.716;14.324;2022-10-23T09:39:29;8.02;;;2.25;;
27939;SDS011;15275;51.716;14.324;2022-10-23T09:41:57;7.32;;;2.50;;
27939;SDS011;15275;51.716;14.324;2022-10-23T09:44:29;5.35;;;2.40;;
27939;SDS011;15275;51.716;14.324;2022-10-23T09:49:38;5.68;;;2.10;;
27939;SDS011;15275;51.716;14.324;2022-10-23T09:54:44;2.95;;;2.00;;
27939;SDS011;15275;51.716;14.324;2022-10-23T09:57:22;5.32;;;2.22;;
27939;SDS011;15275;51.716;14.324;2022-10-23T09:59:58;6.07;;;2.28;;
27939;SDS011;15275;51.716;14.324;2022-10-23T10:02:36;4.97;;;2.42;;
27939;SDS011;15275;51.716;14.324;2022-10-23T10:07:57;3.22;;;2.13;;
27939;SDS011;15275;51.716;14.324;2022-10-23T10:10:37;4.45;;;2.10;;
27939;SDS011;15275;51.716;14.324;2022-10-23T10:30:15;2.92;;;2.05;;
27939;SDS011;15275;51.716;14.324;2022-10-23T10:32:56;3.72;;;1.80;;
27939;SDS011;15275;51.716;14.324;2022-10-23T10:35:56;3.92;;;1.70;;
27939;SDS011;15275;51.716;14.324;2022-10-23T10:47:22;3.75;;;1.90;;
27939;SDS011;15275;51.716;14.324;2022-10-23T10:55:41;3.42;;;2.10;;
27939;SDS011;15275;51.716;14.324;2022-10-23T11:01:51;3.30;;;2.45;;
27939;SDS011;15275;51.716;14.324;2022-10-23T11:07:10;5.28;;;2.67;;
27939;SDS011;15275;51.716;14.324;2022-10-23T11:09:40;9.18;;;2.22;;
27939;SDS011;15275;51.716;14.324;2022-10-23T11:12:13;3.97;;;2.78;;
27939;SDS011;15275;51.716;14.324;2022-10-23T11:14:46;4.57;;;2.65;;
27939;SDS011;15275;51.716;14.324;2022-10-23T11:17:20;3.97;;;2.60;;
27939;SDS011;15275;51.716;14.324;2022-10-23T11:20:01;4.63;;;2.50;;
27939;SDS011;15275;51.716;14.324;2022-10-23T11:22:42;4.75;;;2.47;;
27939;SDS011;15275;51.716;14.324;2022-10-23T11:36:52;6.07;;;2.67;;
27939;SDS011;15275;51.716;14.324;2022-10-23T11:39:22;7.20;;;3.05;;
27939;SDS011;15275;51.716;14.324;2022-10-23T11:41:53;4.78;;;2.85;;
27939;SDS011;15275;51.716;14.324;2022-10-23T11:44:42;5.53;;;2.90;;
27939;SDS011;15275;51.716;14.324;2022-10-23T11:52:32;5.45;;;2.95;;
27939;SDS011;15275;51.716;14.324;2022-10-23T11:55:01;4.57;;;3.30;;
27939;SDS011;15275;51.716;14.324;2022-10-23T12:00:51;3.90;;;2.75;;
27939;SDS011;15275;51.716;14.324;2022-10-23T12:03:38;4.65;;;3.20;;
27939;SDS011;15275;51.716;14.324;2022-10-23T12:06:24;4.65;;;3.00;;
27939;SDS011;15275;51.716;14.324;2022-10-23T12:14:34;4.47;;;2.90;;
27939;SDS011;15275;51.716;14.324;2022-10-23T12:19:50;4.72;;;3.05;;
27939;SDS011;15275;51.716;14.324;2022-10-23T12:28:56;5.47;;;3.10;;
27939;SDS011;15275;51.716;14.324;2022-10-23T12:34:44;4.78;;;2.92;;
27939;SDS011;15275;51.716;14.324;2022-10-23T12:39:53;5.05;;;3.42;;
27939;SDS011;15275;51.716;14.324;2022-10-23T12:42:24;5.95;;;3.60;;
27939;SDS011;15275;51.716;14.324;2022-10-23T12:44:59;6.55;;;3.50;;
27939;SDS011;15275;51.716;14.324;2022-10-23T12:47:48;5.85;;;3.78;;
27939;SDS011;15275;51.716;14.324;2022-10-23T12:50:16;6.03;;;3.42;;
27939;SDS011;15275;51.716;14.324;2022-10-23T12:55:31;5.32;;;3.47;;
27939;SDS011;15275;51.716;14.324;2022-10-23T12:58:25;5.25;;;3.45;;
27939;SDS011;15275;51.716;14.324;2022-10-23T13:01:02;8.88;;;3.35;;
27939;SDS011;15275;51.716;14.324;2022-10-23T13:03:30;6.68;;;3.40;;
27939;SDS011;15275;51.716;14.324;2022-10-23T13:05:58;6.38;;;3.45;;
27939;SDS011;15275;51.716;14.324;2022-10-23T13:08:46;6.72;;;3.38;;
27939;SDS011;15275;51.716;14.324;2022-10-23T13:11:13;4.22;;;3.25;;
27939;SDS011;15275;51.716;14.324;2022-10-23T13:13:42;5.18;;;3.28;;
27939;SDS011;15275;51.716;14.324;2022-10-23T13:16:12;4.75;;;3.30;;
27939;SDS011;15275;51.716;14.324;2022-10-23T13:18:44;4.82;;;3.65;;
27939;SDS011;15275;51.716;14.324;2022-10-23T13:21:23;3.88;;;3.22;;
27939;SDS011;15275;51.716;14.324;2022-10-23T13:23:52;4.10;;;3.30;;
27939;SDS011;15275;51.716;14.324;2022-10-23T13:26:22;6.13;;;3.47;;
27939;SDS011;15275;51.716;14.324;2022-10-23T13:28:52;6.35;;;3.97;;
27939;SDS011;15275;51.716;14.324;2022-10-23T13:31:32;3.63;;;3.00;;
27939;SDS011;15275;51.716;14.324;2022-10-23T13:36:24;9.50;;;3.40;;
27939;SDS011;15275;51.716;14.324;2022-10-23T13:41:24;4.82;;;3.28;;
27939;SDS011;15275;51.716;14.324;2022-10-23T13:43:52;5.13;;;2.92;;
27939;SDS011;15275;51.716;14.324;2022-10-23T13:46:19;4.93;;;3.35;;
27939;SDS011;15275;51.716;14.324;2022-10-23T13:48:48;3.80;;;2.58;;
27939;SDS011;15275;51.716;14.324;2022-10-23T13:51:15;3.60;;;3.03;;
27939;SDS011;15275;51.716;14.324;2022-10-23T13:53:48;6.93;;;3.75;;
27939;SDS011;15275;51.716;14.324;2022-10-23T13:56:15;8.07;;;3.40;;
27939;SDS011;15275;51.716;14.324;2022-10-23T13:58:45;5.85;;;3.03;;
27939;SDS011;15275;51.716;14.324;2022-10-23T14:01:15;4.15;;;2.90;;
27939;SDS011;15275;51.716;14.324;2022-10-23T14:03:51;4.60;;;2.78;;
27939;SDS011;15275;51.716;14.324;2022-10-23T14:06:19;4.07;;;2.88;;
27939;SDS011;15275;51.716;14.324;2022-10-23T14:08:45;4.32;;;3.13;;
27939;SDS011;15275;51.716;14.324;2022-10-23T14:11:11;7.20;;;2.60;;
27939;SDS011;15275;51.716;14.324;2022-10-23T14:13:39;4.80;;;2.65;;
27939;SDS011;15275;51.716;14.324;2022-10-23T14:16:05;2.88;;;2.22;;
27939;SDS011;15275;51.716;14.324;2022-10-23T14:18:34;4.22;;;2.70;;
27939;SDS011;15275;51.716;14.324;2022-10-23T14:21:00;3.53;;;2.50;;
27939;SDS011;15275;51.716;14.324;2022-10-23T14:23:27;3.72;;;2.22;;
27939;SDS011;15275;51.716;14.324;2022-10-23T14:25:53;4.63;;;2.60;;
27939;SDS011;15275;51.716;14.324;2022-10-23T14:28:28;2.63;;;2.40;;
27939;SDS011;15275;51.716;14.324;2022-10-23T14:30:54;3.35;;;2.45;;
27939;SDS011;15275;51.716;14.324;2022-10-23T14:33:20;2.72;;;2.10;;
27939;SDS011;15275;51.716;14.324;2022-10-23T14:35:48;3.42;;;2.30;;
27939;SDS011;15275;51.716;14.324;2022-10-23T14:38:15;7.68;;;2.70;;
27939;SDS011;15275;51.716;14.324;2022-10-23T14:40:40;12.90;;;2.72;;
27939;SDS011;15275;51.716;14.324;2022-10-23T14:43:06;6.03;;;2.67;;
27939;SDS011;15275;51.716;14.324;2022-10-23T14:45:32;3.45;;;2.53;;
27939;SDS011;15275;51.716;14.324;2022-10-23T14:47:58;5.10;;;2.50;;
27939;SDS011;15275;51.716;14.324;2022-10-23T14:50:25;4.00;;;2.50;;
27939;SDS011;15275;51.716;14.324;2022-10-23T14:52:51;3.08;;;2.50;;
27939;SDS011;15275;51.716;14.324;2022-10-23T14:55:17;4.70;;;2.70;;
27939;SDS011;15275;51.716;14.324;2022-10-23T14:57:43;2.95;;;2.45;;
27939;SDS011;15275;51.716;14.324;2022-10-23T15:00:09;3.03;;;2.40;;
27939;SDS011;15275;51.716;14.324;2022-10-23T15:02:36;7.18;;;2.67;;
27939;SDS011;15275;51.716;14.324;2022-10-23T15:05:02;6.18;;;3.53;;
27939;SDS011;15275;51.716;14.324;2022-10-23T15:07:29;7.47;;;4.78;;
27939;SDS011;15275;51.716;14.324;2022-10-23T15:09:55;5.88;;;4.07;;
27939;SDS011;15275;51.716;14.324;2022-10-23T15:12:21;3.72;;;3.20;;
27939;SDS011;15275;51.716;14.324;2022-10-23T15:14:48;4.68;;;3.63;;
27939;SDS011;15275;51.716;14.324;2022-10-23T15:17:14;5.18;;;3.22;;
27939;SDS011;15275;51.716;14.324;2022-10-23T15:19:40;3.83;;;3.03;;
27939;SDS011;15275;51.716;14.324;2022-10-23T15:22:05;8.23;;;3.50;;
27939;SDS011;15275;51.716;14.324;2022-10-23T15:24:31;5.90;;;4.45;;
27939;SDS011;15275;51.716;14.324;2022-10-23T15:26:57;5.38;;;4.78;;
27939;SDS011;15275;51.716;14.324;2022-10-23T15:29:24;8.68;;;5.75;;
27939;SDS011;15275;51.716;14.324;2022-10-23T15:31:53;8.18;;;5.75;;
27939;SDS011;15275;51.716;14.324;2022-10-23T15:34:24;6.95;;;5.88;;
27939;SDS011;15275;51.716;14.324;2022-10-23T15:36:53;9.40;;;6.00;;
27939;SDS011;15275;51.716;14.324;2022-10-23T15:39:22;10.00;;;5.60;;
27939;SDS011;15275;51.716;14.324;2022-10-23T15:41:51;9.18;;;5.38;;
27939;SDS011;15275;51.716;14.324;2022-10-23T15:44:20;7.95;;;4.30;;
27939;SDS011;15275;51.716;14.324;2022-10-23T15:46:49;10.45;;;6.40;;
27939;SDS011;15275;51.716;14.324;2022-10-23T15:49:16;6.78;;;5.20;;
27939;SDS011;15275;51.716;14.324;2022-10-23T15:51:43;7.00;;;4.70;;
27939;SDS011;15275;51.716;14.324;2022-10-23T15:54:10;5.43;;;4.18;;
27939;SDS011;15275;51.716;14.324;2022-10-23T15:56:43;6.82;;;3.83;;
27939;SDS011;15275;51.716;14.324;2022-10-23T15:59:15;7.20;;;4.15;;
27939;SDS011;15275;51.716;14.324;2022-10-23T16:01:43;5.63;;;4.13;;
27939;SDS011;15275;51.716;14.324;2022-10-23T16:04:09;6.32;;;4.55;;
27939;SDS011;15275;51.716;14.324;2022-10-23T16:06:35;5.88;;;3.67;;
27939;SDS011;15275;51.716;14.324;2022-10-23T16:09:01;7.55;;;3.75;;
27939;SDS011;15275;51.716;14.324;2022-10-23T16:11:29;4.47;;;3.30;;
27939;SDS011;15275;51.716;14.324;2022-10-23T16:14:00;5.95;;;3.90;;
27939;SDS011;15275;51.716;14.324;2022-10-23T16:16:28;8.95;;;4.95;;
27939;SDS011;15275;51.716;14.324;2022-10-23T16:19:03;8.88;;;5.68;;
27939;SDS011;15275;51.716;14.324;2022-10-23T16:21:31;12.77;;;8.53;;
27939;SDS011;15275;51.716;14.324;2022-10-23T16:24:00;13.77;;;8.82;;
27939;SDS011;15275;51.716;14.324;2022-10-23T16:26:29;12.02;;;7.68;;
27939;SDS011;15275;51.716;14.324;2022-10-23T16:28:58;10.00;;;6.03;;
27939;SDS011;15275;51.716;14.324;2022-10-23T16:31:28;5.63;;;4.05;;
27939;SDS011;15275;51.716;14.324;2022-10-23T16:33:56;6.90;;;3.85;;
27939;SDS011;15275;51.716;14.324;2022-10-23T16:36:23;6.63;;;3.92;;
27939;SDS011;15275;51.716;14.324;2022-10-23T16:38:49;7.72;;;3.33;;
27939;SDS011;15275;51.716;14.324;2022-10-23T16:41:15;8.07;;;3.92;;
27939;SDS011;15275;51.716;14.324;2022-10-23T16:43:41;6.13;;;3.80;;
27939;SDS011;15275;51.716;14.324;2022-10-23T16:46:14;6.25;;;3.30;;
27939;SDS011;15275;51.716;14.324;2022-10-23T16:48:42;5.70;;;3.75;;
27939;SDS011;15275;51.716;14.324;2022-10-23T16:51:09;7.97;;;4.03;;
27939;SDS011;15275;51.716;14.324;2022-10-23T16:53:38;6.40;;;3.03;;
27939;SDS011;15275;51.716;14.324;2022-10-23T16:56:06;6.20;;;3.75;;
27939;SDS011;15275;51.716;14.324;2022-10-23T16:58:34;7.75;;;3.67;;
27939;SDS011;15275;51.716;14.324;2022-10-23T17:03:32;8.88;;;4.40;;
27939;SDS011;15275;51.716;14.324;2022-10-23T17:06:00;9.07;;;3.95;;
27939;SDS011;15275;51.716;14.324;2022-10-23T17:08:28;4.88;;;3.15;;
27939;SDS011;15275;51.716;14.324;2022-10-23T17:11:11;5.85;;;3.97;;
27939;SDS011;15275;51.716;14.324;2022-10-23T17:13:43;4.80;;;3.42;;
27939;SDS011;15275;51.716;14.324;2022-10-23T17:16:20;5.70;;;3.47;;
27939;SDS011;15275;51.716;14.324;2022-10-23T17:19:01;5.47;;;3.78;;
27939;SDS011;15275;51.716;14.324;2022-10-23T17:21:32;8.07;;;4.10;;